Terminal Aerodrome Forecast
Issued by NWS

Home | Current Version | Previous Version | Text Only | Print | Product List | Glossary On
Versions: 1 2 3 4 5 6 7 8 9 10 11 12 13
000
FTUS45 KRIW 302336
TAFRKS
TAF
KRKS 302336Z 3100/3124 23010G20KT P6SM VCTS SCT080CB BKN200
     FM310200 25014KT P6SM VCSH SCT080 BKN110
     FM310600 23007KT P6SM FEW120
     FM312000 26013G21KT P6SM FEW110 SCT200=

USA.gov is the U.S. government's official web portal to all federal, state and local government web resources and services.